Time;durP1;ratioP1;P1;durP2;ratioP2;P2;SDS_P1;SDS_P2;PMS_P1;PMS_P2;Temp;Humidity;BMP_temperature;BMP_pressure;BME280_temperature;BME280_humidity;BME280_pressure;Samples;Min_cycle;Max_cycle;Signal;HPM_P1;HPM_P2
2022/05/14 06:25:25;;;;;;;;;2.67;2.67;;;;;17.56;93.31;101511.25;6369231;22;46602;-87
2022/05/14 06:27:50;;;;;;;;;3.00;1.33;;;;;17.62;92.79;101513.22;6400641;22;45299;-89
2022/05/14 06:30:16;;;;;;;;;4.00;2.00;;;;;17.76;92.66;101524.19;6402425;22;46752;-95
2022/05/14 06:32:43;;;;;;;;;2.00;2.00;;;;;17.92;92.70;101535.25;6404319;22;45338;-95
2022/05/14 06:35:10;;;;;;;;;2.00;2.00;;;;;18.01;92.56;101521.34;6375578;22;45315;-96
2022/05/14 06:37:35;;;;;;;;;3.00;3.00;;;;;18.08;91.75;101526.84;6405802;22;45450;-96
2022/05/14 06:40:01;;;;;;;;;2.33;2.33;;;;;18.30;91.56;101540.72;6375062;22;47844;-96
2022/05/14 06:42:26;;;;;;;;;2.33;2.00;;;;;18.50;91.46;101539.44;6401412;22;45410;-91
2022/05/14 06:44:52;;;;;;;;;3.00;3.00;;;;;18.68;91.40;101525.72;6373434;22;45336;-93
2022/05/14 06:47:18;;;;;;;;;5.67;2.00;;;;;18.90;90.33;101531.53;6371685;22;45443;-92
2022/05/14 06:49:44;;;;;;;;;1.00;1.00;;;;;18.91;89.48;101543.06;6398342;22;46898;-92
2022/05/14 06:52:12;;;;;;;;;2.00;2.00;;;;;18.91;89.21;101549.28;6372347;22;45217;-92
2022/05/14 06:54:41;;;;;;;;;2.00;2.00;;;;;18.92;88.79;101555.47;6374360;22;45226;-92
2022/05/14 06:57:06;;;;;;;;;4.00;2.00;;;;;18.94;88.68;101559.09;6372529;22;45376;-95
2022/05/14 06:59:33;;;;;;;;;2.67;2.00;;;;;18.91;88.07;101570.56;6399641;22;45496;-92
2022/05/14 07:01:59;;;;;;;;;3.00;2.67;;;;;18.92;87.99;101575.00;6372354;22;45295;-88
2022/05/14 07:07:09;;;;;;;;;2.67;2.00;;;;;19.01;88.35;101570.78;6401179;22;45366;-88
2022/05/14 07:09:34;;;;;;;;;2.00;2.00;;;;;19.09;88.00;101572.78;6370377;22;48033;-89
2022/05/14 07:12:03;;;;;;;;;1.00;1.00;;;;;19.20;87.58;101581.00;6370273;22;45386;-89
2022/05/14 07:14:30;;;;;;;;;2.00;1.33;;;;;19.33;87.17;101580.41;6400167;22;45414;-89
2022/05/14 07:16:55;;;;;;;;;4.00;3.67;;;;;19.40;87.00;101577.91;6370483;22;45315;-89
2022/05/14 07:19:21;;;;;;;;;2.00;2.00;;;;;19.51;86.80;101585.19;6398688;22;45447;-88
2022/05/14 07:21:49;;;;;;;;;2.00;2.00;;;;;19.60;86.70;101580.09;6408278;22;45241;-89
2022/05/14 07:24:28;;;;;;;;;3.67;3.67;;;;;19.71;86.90;101585.66;6422790;22;44699;-89
2022/05/14 07:26:56;;;;;;;;;2.00;1.00;;;;;19.75;86.21;101590.16;6369107;22;44721;-89
2022/05/14 07:29:24;;;;;;;;;2.67;2.67;;;;;19.81;85.56;101585.84;6418253;22;45221;-88
2022/05/14 07:31:49;;;;;;;;;2.00;2.00;;;;;19.87;85.66;101589.50;6371287;22;45336;-89
2022/05/14 07:34:16;;;;;;;;;4.00;4.00;;;;;19.92;85.29;101592.25;6368751;22;45296;-89
2022/05/14 07:36:52;;;;;;;;;2.33;2.00;;;;;19.94;84.94;101590.56;6369170;22;45366;-88
2022/05/14 07:39:19;;;;;;;;;2.33;2.33;;;;;19.99;84.62;101588.88;6369984;22;47105;-88
2022/05/14 07:41:50;;;;;;;;;3.33;1.67;;;;;20.07;84.44;101593.44;6406157;22;45356;-90
2022/05/14 07:44:19;;;;;;;;;2.67;2.00;;;;;20.14;84.48;101586.50;6371317;22;45265;-90
2022/05/14 07:46:49;;;;;;;;;3.67;3.67;;;;;20.24;84.45;101585.78;6344272;22;45607;-88
2022/05/14 07:49:16;;;;;;;;;3.67;2.00;;;;;20.32;84.29;101578.84;6382370;22;45524;-89
2022/05/14 07:51:42;;;;;;;;;6.00;3.00;;;;;20.42;84.37;101587.91;6412905;22;45457;-89
2022/05/14 07:54:08;;;;;;;;;4.00;3.00;;;;;20.52;84.31;101588.06;6416975;22;45213;-88
2022/05/14 07:56:34;;;;;;;;;3.00;3.00;;;;;20.62;84.04;101586.44;6404826;22;45242;-88
2022/05/14 07:58:59;;;;;;;;;4.00;4.00;;;;;20.64;83.15;101596.25;6376014;22;48060;-88
2022/05/14 08:01:25;;;;;;;;;5.00;4.33;;;;;20.70;83.83;101586.56;6368545;22;45737;-88
2022/05/14 08:03:51;;;;;;;;;5.00;4.00;;;;;20.76;83.44;101595.59;6399216;22;45263;-90
2022/05/14 08:06:17;;;;;;;;;3.33;3.33;;;;;20.83;83.26;101593.91;6369375;22;45311;-89
2022/05/14 08:08:42;;;;;;;;;5.67;5.00;;;;;20.88;83.19;101591.31;6397147;22;45257;-88
2022/05/14 08:11:08;;;;;;;;;5.00;3.67;;;;;20.97;83.15;101591.47;6370112;22;45908;-89
2022/05/14 08:13:34;;;;;;;;;6.00;3.67;;;;;21.10;83.26;101594.34;6374879;22;45249;-89
2022/05/14 08:16:00;;;;;;;;;4.33;3.00;;;;;21.21;82.82;101608.72;6379367;22;45516;-89
2022/05/14 08:18:26;;;;;;;;;5.33;4.00;;;;;21.30;82.39;101605.31;6375187;22;48189;-89
2022/05/14 08:20:51;;;;;;;;;4.00;3.00;;;;;21.41;82.67;101604.56;6402895;22;45232;-89
2022/05/14 08:26:14;;;;;;;;;5.00;3.33;;;;;21.59;81.54;101611.94;6401533;22;45340;-89
2022/05/14 08:28:39;;;;;;;;;2.67;2.00;;;;;21.69;81.92;101609.38;6372552;22;48031;-89
2022/05/14 08:31:05;;;;;;;;;3.00;3.00;;;;;21.77;81.22;101611.28;6372547;22;45312;-89
2022/05/14 08:33:30;;;;;;;;;4.33;4.33;;;;;21.86;81.46;101606.91;6373260;22;45322;-89
2022/05/14 08:35:55;;;;;;;;;2.00;2.00;;;;;21.91;81.21;101602.53;6401043;22;45280;-89
2022/05/14 08:38:23;;;;;;;;;2.00;2.00;;;;;22.04;80.65;101611.59;6399267;22;45269;-88
2022/05/14 08:40:58;;;;;;;;;4.00;4.00;;;;;22.16;80.64;101616.16;6370179;22;45360;-89
2022/05/14 08:43:37;;;;;;;;;3.00;3.00;;;;;22.27;81.34;101616.28;6371937;22;45378;-89
2022/05/14 08:46:07;;;;;;;;;3.00;3.00;;;;;22.36;80.58;101617.28;6370531;22;45456;-89
2022/05/14 08:48:36;;;;;;;;;5.00;5.00;;;;;22.42;80.54;101614.69;6397126;22;45801;-88
2022/05/14 08:51:05;;;;;;;;;3.33;2.00;;;;;22.53;79.88;101615.66;6367875;22;45684;-88
2022/05/14 08:53:32;;;;;;;;;4.00;3.00;;;;;22.65;80.20;101612.19;6368333;22;45611;-89
2022/05/14 08:56:25;;;;;;;;;5.00;2.00;;;;;22.82;79.91;101613.25;6398201;22;45310;-89
2022/05/14 08:59:09;;;;;;;;;3.00;2.67;;;;;22.95;79.62;101624.94;6367379;22;46097;-90
2022/05/14 09:01:38;;;;;;;;;5.00;4.00;;;;;23.04;78.86;101622.31;6397711;22;45257;-89
2022/05/14 09:04:07;;;;;;;;;3.00;3.00;;;;;23.18;79.11;101627.78;6368728;22;45356;-89
2022/05/14 09:06:32;;;;;;;;;2.67;2.67;;;;;23.31;78.40;101636.81;6374618;22;45356;-88
2022/05/14 09:08:57;;;;;;;;;2.00;1.33;;;;;23.40;77.89;101635.06;6368155;22;46878;-89
2022/05/14 09:11:26;;;;;;;;;5.00;5.00;;;;;23.52;78.01;101634.25;6369191;22;45247;-90
2022/05/14 09:13:57;;;;;;;;;5.00;3.33;;;;;23.64;77.66;101644.13;6397379;22;45285;-83
2022/05/14 09:16:32;;;;;;;;;3.67;3.00;;;;;23.71;77.30;101648.63;6398373;22;45306;-89
2022/05/14 09:18:58;;;;;;;;;1.33;1.33;;;;;23.78;77.20;101636.19;6397538;22;46281;-89
2022/05/14 09:21:30;;;;;;;;;2.00;2.00;;;;;23.83;76.72;101642.44;6368595;22;45289;-88
2022/05/14 09:24:00;;;;;;;;;2.00;2.00;;;;;23.91;76.50;101644.25;6397697;22;45267;-88
2022/05/14 09:26:45;;;;;;;;;3.00;2.00;;;;;24.05;76.66;101636.25;6397928;22;45268;-89
2022/05/14 09:29:33;;;;;;;;;2.00;1.33;;;;;24.19;76.42;101641.66;6368916;22;46983;-90
2022/05/14 09:32:02;;;;;;;;;4.33;1.00;;;;;24.35;75.76;101652.47;6397313;22;45373;-89
2022/05/14 09:34:29;;;;;;;;;2.00;1.00;;;;;24.52;75.97;101647.13;6367759;22;45328;-88
2022/05/14 09:37:10;;;;;;;;;1.33;1.33;;;;;24.80;75.71;101643.53;6368003;22;45496;-89
2022/05/14 09:39:36;;;;;;;;;2.67;1.67;;;;;25.56;75.64;101627.31;6367875;22;47402;-87
2022/05/14 09:42:04;;;;;;;;;6.00;2.33;;;;;26.74;75.04;101650.91;6396879;22;45329;-88
2022/05/14 09:44:49;;;;;;;;;1.67;1.67;;;;;27.40;74.55;101650.28;6368682;22;45352;-88
2022/05/14 09:47:27;;;;;;;;;1.00;1.00;;;;;27.83;73.31;101674.09;6368916;22;45354;-88
2022/05/14 09:50:05;;;;;;;;;2.00;1.00;;;;;28.31;72.17;101780.50;6397338;22;45404;-88
2022/05/14 09:52:35;;;;;;;;;1.00;1.00;;;;;29.14;71.87;101787.47;6367426;22;45409;-90
2022/05/14 09:55:08;;;;;;;;;1.33;1.33;;;;;30.72;71.79;101782.63;6368901;22;45210;-89
2022/05/14 09:57:33;;;;;;;;;1.00;1.00;;;;;32.44;70.38;101788.03;6368403;22;45435;-90
2022/05/14 10:00:21;;;;;;;;;2.00;2.00;;;;;34.32;69.47;101795.28;6397879;22;45371;-88
2022/05/14 10:03:33;;;;;;;;;2.67;2.67;;;;;36.34;65.17;101817.66;6368527;22;45753;-89
2022/05/14 10:06:24;;;;;;;;;1.00;0.00;;;;;38.11;63.75;101825.22;6235928;22;45184;-89
2022/05/14 10:08:52;;;;;;;;;1.33;0.33;;;;;39.06;59.37;101834.53;6236881;22;45382;-89
2022/05/14 10:11:32;;;;;;;;;1.67;1.67;;;;;39.87;58.38;101841.63;6210272;22;46504;-90
2022/05/14 10:14:14;;;;;;;;;1.00;1.00;;;;;40.44;55.63;101839.81;6209959;22;46159;-90
2022/05/14 10:17:01;;;;;;;;;0.00;0.00;;;;;40.98;53.76;101850.97;6237006;22;45338;-89
2022/05/14 10:19:44;;;;;;;;;1.33;1.33;;;;;41.46;51.84;101847.81;6211183;22;45399;-90
2022/05/14 10:22:20;;;;;;;;;0.00;0.00;;;;;42.11;51.51;101845.97;6210555;22;46429;-90
2022/05/14 10:28:10;;;;;;;;;1.00;1.00;;;;;44.10;47.80;101851.19;6239238;22;45306;-94
2022/05/14 10:30:51;;;;;;;;;0.67;0.67;;;;;44.89;46.28;101853.97;6240727;22;45335;-96
2022/05/14 10:33:22;;;;;;;;;1.00;1.00;;;;;45.71;44.13;101860.88;6237586;22;45403;-92
2022/05/14 10:35:55;;;;;;;;;0.33;0.33;;;;;46.32;43.70;101850.78;6237389;22;45535;-93
2022/05/14 10:38:27;;;;;;;;;0.00;0.00;;;;;46.48;43.00;101849.34;6211182;22;45409;-94
2022/05/14 10:40:59;;;;;;;;;1.67;1.67;;;;;46.67;42.20;101836.56;6211490;22;45583;-95
2022/05/14 10:43:45;;;;;;;;;1.00;1.00;;;;;46.86;42.03;101841.22;6378555;22;46201;-94
2022/05/14 10:46:16;;;;;;;;;1.00;1.00;;;;;46.86;40.39;101846.78;6398578;22;45603;-95
2022/05/14 10:48:52;;;;;;;;;1.00;1.00;;;;;47.11;40.54;101842.72;6370122;22;45354;-93
2022/05/14 10:51:24;;;;;;;;;1.00;1.00;;;;;47.42;39.94;101826.72;6368927;22;45311;-92
2022/05/14 10:53:51;;;;;;;;;1.67;1.67;;;;;47.84;39.61;101826.44;6367343;22;47427;-91
2022/05/14 10:56:30;;;;;;;;;1.67;1.00;;;;;48.15;38.53;101834.50;6369677;22;46093;-89
2022/05/14 10:59:08;;;;;;;;;1.00;1.00;;;;;48.46;38.68;101832.41;6369081;22;45263;-90
2022/05/14 11:01:52;;;;;;;;;2.00;2.00;;;;;49.00;37.88;101837.13;6368846;22;45227;-90
2022/05/14 11:04:17;;;;;;;;;3.00;3.00;;;;;49.68;37.91;101833.81;6396965;22;46391;-89
2022/05/14 11:07:08;;;;;;;;;4.33;2.00;;;;;49.93;36.68;101833.03;6397986;22;45315;-89
2022/05/14 11:09:50;;;;;;;;;6.00;6.00;;;;;50.21;36.49;101826.38;6379360;22;45293;-90
2022/05/14 11:12:18;;;;;;;;;4.00;3.00;;;;;50.59;36.72;101834.31;6398450;22;45392;-89
2022/05/14 11:14:45;;;;;;;;;1.00;1.00;;;;;51.18;35.76;101821.22;6368347;22;48495;-90
2022/05/14 11:17:35;;;;;;;;;1.67;1.67;;;;;51.80;35.84;101827.19;6369180;22;45437;-90
2022/05/14 11:20:04;;;;;;;;;1.67;1.00;;;;;52.53;35.42;101819.63;6368867;22;45362;-91
2022/05/14 11:22:54;;;;;;;;;1.00;1.00;;;;;53.15;34.27;101816.81;6368954;22;45396;-90
2022/05/14 11:25:19;;;;;;;;;2.00;2.00;;;;;53.69;33.39;101813.94;6367706;22;48743;-86
2022/05/14 11:28:13;;;;;;;;;1.00;1.00;;;;;54.04;32.76;101807.72;6396857;22;45296;-90
2022/05/14 11:30:47;;;;;;;;;2.33;2.33;;;;;54.29;32.07;101812.97;6369365;22;45314;-89
2022/05/14 11:33:29;;;;;;;;;2.67;1.67;;;;;54.50;31.87;101805.59;6368276;22;45350;-91
2022/05/14 11:36:00;;;;;;;;;1.67;1.67;;;;;54.84;31.53;101807.84;6397958;22;45273;-90
2022/05/14 11:38:29;;;;;;;;;2.33;2.33;;;;;55.28;30.76;101804.97;6367837;22;45438;-90
2022/05/14 11:41:00;;;;;;;;;2.00;2.00;;;;;55.73;30.95;101798.91;6398119;22;45333;-91
2022/05/14 11:43:33;;;;;;;;;1.33;1.00;;;;;56.20;30.34;101804.91;6397468;22;45753;-91
2022/05/14 11:46:30;;;;;;;;;2.00;2.00;;;;;56.77;30.45;101800.84;6397241;22;45605;-91
2022/05/14 11:49:03;;;;;;;;;2.00;2.00;;;;;57.32;28.79;101802.50;6368191;22;45547;-91
2022/05/14 11:51:56;;;;;;;;;1.00;1.00;;;;;57.46;28.88;101799.63;6397532;22;45233;-91
2022/05/14 11:54:47;;;;;;;;;1.00;1.00;;;;;57.68;28.02;101794.56;6368345;22;45320;-90
2022/05/14 11:57:18;;;;;;;;;3.00;3.00;;;;;57.92;28.30;101794.03;6373566;22;47226;-89
2022/05/14 11:59:57;;;;;;;;;2.00;2.00;;;;;58.03;28.66;101796.13;6397410;22;45434;-89
2022/05/14 12:02:37;;;;;;;;;2.00;2.00;;;;;57.93;28.21;101788.16;6368553;22;45700;-90
2022/05/14 12:05:07;;;;;;;;;1.33;1.33;;;;;57.70;27.14;101789.59;6368701;22;45214;-90
2022/05/14 12:07:50;;;;;;;;;2.00;2.00;;;;;57.22;26.95;101786.06;6396497;22;45553;-90
2022/05/14 12:10:53;;;;;;;;;2.67;2.00;;;;;56.89;26.92;101784.13;6368909;22;45332;-90
2022/05/14 12:13:48;;;;;;;;;2.67;2.67;;;;;57.15;27.14;101777.59;6386666;22;45481;-90
2022/05/14 12:16:14;;;;;;;;;3.00;1.33;;;;;57.45;25.77;101781.84;6397954;22;45226;-92
2022/05/14 12:18:41;;;;;;;;;2.00;2.00;;;;;57.82;26.81;101784.06;6368316;22;48386;-89
2022/05/14 12:21:08;;;;;;;;;2.00;2.00;;;;;58.21;26.49;101774.75;6396942;22;45328;-90
2022/05/14 12:23:37;;;;;;;;;1.00;1.00;;;;;58.53;26.32;101776.69;6397342;22;45301;-90
2022/05/14 12:26:27;;;;;;;;;1.00;1.00;;;;;58.92;26.43;101772.84;6398309;22;45299;-90
2022/05/14 12:28:55;;;;;;;;;2.00;2.00;;;;;59.35;25.61;101768.19;6396682;22;45355;-90
2022/05/14 12:34:17;;;;;;;;;2.33;2.00;;;;;60.27;25.15;101760.78;6397263;22;45353;-89
2022/05/14 12:36:50;;;;;;;;;1.67;1.67;;;;;60.47;25.41;101759.59;6367406;22;45507;-91
2022/05/14 12:39:27;;;;;;;;;3.00;3.00;;;;;60.56;25.15;101748.75;6368777;22;48028;-90
2022/05/14 12:41:57;;;;;;;;;3.00;2.00;;;;;60.98;25.20;101756.28;6397212;22;45412;-91
2022/05/14 12:44:26;;;;;;;;;4.00;2.67;;;;;61.46;24.68;101756.13;6397659;22;45410;-91
2022/05/14 12:46:56;;;;;;;;;1.33;1.33;;;;;62.08;24.28;101754.69;6368783;22;45387;-90
2022/05/14 12:49:38;;;;;;;;;3.00;2.00;;;;;62.68;24.19;101754.25;6397139;22;46114;-90
2022/05/14 12:52:09;;;;;;;;;2.00;2.00;;;;;63.19;24.18;101752.38;6368517;22;45289;-90
2022/05/14 12:54:40;;;;;;;;;2.67;2.67;;;;;63.82;23.67;101744.50;6368155;22;45347;-92
2022/05/14 12:57:10;;;;;;;;;1.00;1.00;;;;;64.12;22.85;101740.22;6368478;22;45316;-92
2022/05/14 12:59:36;;;;;;;;;3.00;2.00;;;;;64.34;22.96;101740.09;6368653;22;46141;-91
2022/05/14 13:02:06;;;;;;;;;3.00;3.00;;;;;64.60;22.71;101736.56;6367897;22;45643;-91
2022/05/14 13:04:54;;;;;;;;;4.00;4.00;;;;;65.00;22.50;101730.47;6396371;22;45346;-91
2022/05/14 13:07:20;;;;;;;;;2.00;2.00;;;;;65.36;21.85;101726.91;6397442;22;45379;-94
2022/05/14 13:09:46;;;;;;;;;3.00;1.00;;;;;65.73;22.34;101721.22;6368816;22;47441;-92
2022/05/14 13:12:22;;;;;;;;;2.00;2.00;;;;;66.10;21.68;101720.06;6369216;22;46043;-90
2022/05/14 13:14:58;;;;;;;;;3.00;2.50;;;;;66.48;21.61;101717.97;6368966;22;45297;-90
2022/05/14 13:17:36;;;;;;;;;3.50;3.25;;;;;66.87;21.01;101717.25;6368193;22;45319;-89
2022/05/14 13:20:07;;;;;;;;;6.00;4.25;;;;;66.94;21.13;101716.91;6368225;22;47690;-91
2022/05/14 13:22:33;;;;;;;;;2.75;2.75;;;;;66.73;20.86;101708.47;6368632;22;46418;-90
2022/05/14 13:25:02;;;;;;;;;4.75;3.75;;;;;66.84;20.99;101716.97;6368505;22;45568;-90
2022/05/14 13:27:34;;;;;;;;;3.00;3.00;;;;;67.13;20.72;101709.69;6369160;22;45463;-90
2022/05/14 13:30:16;;;;;;;;;2.75;2.75;;;;;67.30;20.54;101706.47;6368970;22;46916;-89
2022/05/14 13:32:42;;;;;;;;;2.00;2.00;;;;;67.34;20.47;101704.69;6397675;22;45264;-90
2022/05/14 13:38:07;;;;;;;;;0.00;0.00;;;;;67.13;19.98;101689.66;6397903;22;45559;-90
2022/05/14 13:40:46;;;;;;;;;2.75;2.75;;;;;66.98;20.31;101689.44;6398774;22;46844;-91
2022/05/14 13:43:22;;;;;;;;;2.00;2.00;;;;;66.38;20.94;101681.69;6390323;22;45416;-91
2022/05/14 13:45:53;;;;;;;;;3.00;3.00;;;;;65.71;20.30;101678.66;6369226;22;45345;-91
2022/05/14 13:48:38;;;;;;;;;1.50;1.50;;;;;64.70;19.92;101670.16;6397125;22;45315;-91
2022/05/14 13:51:18;;;;;;;;;2.75;2.00;;;;;63.40;20.41;101667.25;6397630;22;45457;-91
2022/05/14 13:53:52;;;;;;;;;3.00;2.00;;;;;62.28;20.48;101662.41;6397693;22;45429;-91
2022/05/14 13:56:21;;;;;;;;;2.00;2.00;;;;;61.38;21.03;101660.06;6369043;22;45654;-91
2022/05/14 13:58:59;;;;;;;;;3.75;2.75;;;;;60.76;21.67;101646.34;6368744;22;45375;-91
2022/05/14 14:01:39;;;;;;;;;5.75;5.75;;;;;60.23;21.70;101646.25;6398180;22;46009;-91
2022/05/14 14:04:13;;;;;;;;;2.00;2.00;;;;;59.63;22.03;101647.03;6397702;22;45311;-91
2022/05/14 14:06:39;;;;;;;;;2.25;2.25;;;;;59.24;22.01;101645.41;6369997;22;45292;-87
2022/05/14 14:09:05;;;;;;;;;2.50;2.50;;;;;58.78;22.14;101636.41;6367914;22;45387;-90
2022/05/14 14:11:31;;;;;;;;;2.00;2.00;;;;;58.19;22.57;101641.38;6368988;22;47001;-90
2022/05/14 14:13:56;;;;;;;;;3.75;2.75;;;;;57.49;22.64;101642.09;6366773;22;45375;-89
2022/05/14 14:16:22;;;;;;;;;2.25;2.25;;;;;56.70;22.36;101631.78;6367910;22;55952;-90
2022/05/14 14:18:47;;;;;;;;;4.00;2.75;;;;;56.08;23.07;101632.94;6396569;22;45286;-91
2022/05/14 14:21:13;;;;;;;;;4.00;4.00;;;;;55.39;23.21;101618.72;6369206;22;48021;-90
2022/05/14 14:23:41;;;;;;;;;2.33;2.33;;;;;54.60;23.20;101619.00;6389299;22;45401;-92
2022/05/14 14:26:08;;;;;;;;;4.67;3.00;;;;;53.28;23.55;101614.31;6397495;22;45358;-94
2022/05/14 14:28:34;;;;;;;;;3.00;2.33;;;;;51.83;24.06;101611.41;6367368;22;45615;-92
2022/05/14 14:31:03;;;;;;;;;3.00;3.00;;;;;50.67;24.38;101605.28;6397875;22;46190;-93
2022/05/14 14:33:32;;;;;;;;;1.33;1.33;;;;;49.69;24.79;101612.44;6396768;22;45780;-92
2022/05/14 14:35:57;;;;;;;;;1.33;1.33;;;;;48.72;25.43;101609.75;6368808;22;45193;-92
2022/05/14 14:38:24;;;;;;;;;3.00;3.00;;;;;48.09;25.47;101605.06;6393996;22;45308;-93
2022/05/14 14:40:49;;;;;;;;;3.33;2.00;;;;;47.44;25.89;101601.47;6368151;22;47125;-92
2022/05/14 14:43:15;;;;;;;;;3.00;2.67;;;;;46.88;26.51;101602.28;6367805;22;52056;-95
2022/05/14 14:45:43;;;;;;;;;3.00;3.00;;;;;46.76;26.77;101598.81;6398030;22;45272;-95
2022/05/14 14:48:09;;;;;;;;;3.00;3.00;;;;;46.63;26.56;101586.16;6398053;22;45300;-94
2022/05/14 14:50:35;;;;;;;;;2.00;2.00;;;;;45.96;27.51;101593.34;6369267;22;47075;-93
2022/05/14 14:53:00;;;;;;;;;5.00;3.00;;;;;44.84;27.48;101583.09;6368095;22;45390;-92
2022/05/14 14:55:26;;;;;;;;;2.33;1.00;;;;;43.65;28.37;101579.34;6368538;22;45312;-92
2022/05/14 14:57:52;;;;;;;;;3.33;3.00;;;;;42.45;28.70;101565.88;6368114;22;45283;-92
2022/05/14 15:00:20;;;;;;;;;4.00;4.00;;;;;41.39;29.46;101567.34;6396793;22;45393;-93
2022/05/14 15:03:03;;;;;;;;;4.00;3.00;;;;;40.40;30.86;101574.31;6397662;22;45324;-92
2022/05/14 15:05:34;;;;;;;;;3.00;2.00;;;;;39.46;31.59;101569.50;6396634;22;45349;-91
2022/05/14 15:08:02;;;;;;;;;1.00;1.00;;;;;38.60;32.11;101552.91;6397323;22;45438;-93
2022/05/14 15:10:29;;;;;;;;;2.67;2.00;;;;;37.92;31.89;101562.34;6368491;22;47875;-93
2022/05/14 15:12:55;;;;;;;;;2.00;2.00;;;;;37.28;32.98;101564.06;6404260;22;45280;-91
2022/05/14 15:15:20;;;;;;;;;2.33;2.33;;;;;36.72;33.73;101562.50;6399426;22;45319;-91
2022/05/14 15:17:45;;;;;;;;;3.00;3.00;;;;;36.21;34.12;101563.25;6396935;22;45363;-93
2022/05/14 15:20:12;;;;;;;;;3.33;2.67;;;;;35.67;34.01;101565.84;6366639;22;66122;-91
2022/05/14 15:22:39;;;;;;;;;2.33;2.33;;;;;35.20;34.64;101564.44;6397257;22;45335;-93
2022/05/14 15:25:06;;;;;;;;;2.00;2.00;;;;;34.76;35.22;101561.81;6396943;22;45346;-94
2022/05/14 15:27:31;;;;;;;;;4.67;4.00;;;;;34.44;35.71;101558.66;6368141;22;45533;-93
2022/05/14 15:29:56;;;;;;;;;3.00;3.00;;;;;34.00;36.12;101555.00;6397041;22;45378;-93
2022/05/14 15:32:23;;;;;;;;;2.67;2.67;;;;;33.70;36.48;101560.75;6368221;22;45772;-92
2022/05/14 15:34:50;;;;;;;;;3.67;3.00;;;;;33.40;36.84;101559.19;6365921;22;45445;-92
2022/05/14 15:37:17;;;;;;;;;3.50;2.50;;;;;33.14;37.23;101550.19;6367816;22;45516;-92
2022/05/14 15:39:47;;;;;;;;;5.00;4.33;;;;;32.91;37.67;101543.78;6396802;22;45621;-94
2022/05/14 15:42:18;;;;;;;;;2.00;2.00;;;;;32.72;37.83;101548.06;6369081;22;45323;-92
2022/05/14 15:44:49;;;;;;;;;2.67;2.00;;;;;32.53;38.17;101548.66;6368911;22;45317;-92
2022/05/14 15:47:18;;;;;;;;;2.00;2.00;;;;;32.33;38.12;101542.13;6399816;22;45312;-91
2022/05/14 15:49:49;;;;;;;;;3.67;2.00;;;;;32.18;38.79;101550.78;6397768;22;45320;-92
2022/05/14 15:52:14;;;;;;;;;3.00;1.33;;;;;31.96;39.54;101546.00;6398452;22;45189;-93
2022/05/14 15:54:40;;;;;;;;;1.67;1.67;;;;;31.74;40.05;101544.00;6398028;22;45485;-90
2022/05/14 15:57:08;;;;;;;;;3.33;2.33;;;;;31.47;40.33;101535.78;6398352;22;45297;-91
2022/05/14 15:59:34;;;;;;;;;2.00;2.00;;;;;31.30;40.71;101548.03;6368502;22;47138;-90
2022/05/14 16:01:59;;;;;;;;;2.67;2.00;;;;;31.09;40.87;101537.78;6398322;22;45383;-91
2022/05/14 16:04:25;;;;;;;;;1.67;1.67;;;;;30.95;41.60;101526.44;6397541;22;45293;-90
2022/05/14 16:06:50;;;;;;;;;4.00;2.00;;;;;30.80;42.20;101528.59;6397971;22;45594;-90
2022/05/14 16:09:15;;;;;;;;;1.33;1.33;;;;;30.69;41.85;101526.22;6397723;22;46591;-91
2022/05/14 16:17:02;;;;;;;;;3.00;3.00;;;;;30.27;42.44;101530.00;6398471;22;45298;-90
2022/05/14 16:19:28;;;;;;;;;3.00;2.00;;;;;30.14;42.51;101530.31;6398101;22;46340;-92
2022/05/14 16:21:54;;;;;;;;;2.00;2.00;;;;;30.02;42.82;101525.19;6398530;22;45435;-92
2022/05/14 16:24:21;;;;;;;;;2.67;1.33;;;;;29.92;43.41;101524.53;6368929;22;45392;-93
2022/05/14 16:26:47;;;;;;;;;2.67;1.67;;;;;29.77;43.39;101515.84;6397864;22;45599;-90
2022/05/14 16:29:13;;;;;;;;;2.67;2.00;;;;;29.64;43.54;101521.50;6397832;22;45372;-91
2022/05/14 16:31:39;;;;;;;;;2.00;2.00;;;;;29.48;44.12;101512.00;6370152;22;45627;-92
2022/05/14 16:34:06;;;;;;;;;2.33;2.33;;;;;29.32;44.29;101509.63;6399011;22;45331;-91
2022/05/14 16:36:32;;;;;;;;;1.33;1.33;;;;;29.14;44.35;101503.69;6396989;22;45534;-91
2022/05/14 16:38:59;;;;;;;;;0.67;0.67;;;;;28.99;44.77;101500.34;6398330;22;46358;-93
2022/05/14 16:41:25;;;;;;;;;3.00;3.00;;;;;28.89;45.02;101499.63;6398254;22;45734;-89
2022/05/14 16:43:50;;;;;;;;;3.00;2.00;;;;;28.76;45.05;101504.41;6397143;22;45613;-91
2022/05/14 16:46:16;;;;;;;;;2.67;2.67;;;;;28.64;45.41;101508.22;6398569;22;45392;-91
2022/05/14 16:48:45;;;;;;;;;3.00;2.00;;;;;28.52;45.27;101495.88;6368717;22;53534;-90
2022/05/14 16:51:11;;;;;;;;;4.67;2.33;;;;;28.44;45.86;101504.09;6398677;22;45472;-89
2022/05/14 16:53:39;;;;;;;;;2.67;2.00;;;;;28.35;45.95;101496.13;6396806;22;45261;-90
2022/05/14 16:56:16;;;;;;;;;4.00;2.00;;;;;28.26;45.95;101494.50;6369441;22;45493;-89
2022/05/14 16:58:44;;;;;;;;;4.33;4.33;;;;;28.16;46.40;101496.47;6398067;22;45515;-90
2022/05/14 17:01:11;;;;;;;;;3.00;3.00;;;;;28.05;46.71;101484.94;6396955;22;45307;-90
2022/05/14 17:03:37;;;;;;;;;3.00;3.00;;;;;27.99;46.63;101497.63;6401575;22;45233;-92
2022/05/14 17:06:03;;;;;;;;;3.00;3.00;;;;;27.91;47.11;101495.97;6369857;22;45420;-91
2022/05/14 17:08:28;;;;;;;;;3.00;3.00;;;;;27.85;46.78;101494.25;6368740;22;47040;-90
2022/05/14 17:10:54;;;;;;;;;3.33;2.00;;;;;27.78;47.31;101490.75;6398782;22;45264;-89
2022/05/14 17:13:19;;;;;;;;;3.00;2.33;;;;;27.71;47.26;101489.94;6369551;22;45239;-89
2022/05/14 17:15:48;;;;;;;;;2.67;2.67;;;;;27.69;47.77;101497.16;6369694;22;45546;-90
2022/05/14 17:18:15;;;;;;;;;4.00;3.00;;;;;27.65;47.96;101490.03;6368850;22;47587;-90
2022/05/14 17:20:42;;;;;;;;;2.33;2.33;;;;;27.59;48.17;101485.63;6398157;22;45299;-90
2022/05/14 17:23:07;;;;;;;;;4.00;4.00;;;;;27.51;48.12;101474.06;6399102;22;45268;-93
2022/05/14 17:25:34;;;;;;;;;2.67;2.67;;;;;27.47;48.67;101483.09;6367902;22;45428;-91
2022/05/14 17:28:00;;;;;;;;;4.00;3.00;;;;;27.42;48.75;101486.75;6368815;22;47197;-89
2022/05/14 17:30:29;;;;;;;;;5.00;5.00;;;;;27.36;48.59;101486.84;6398202;22;45315;-91
2022/05/14 17:32:55;;;;;;;;;6.33;5.00;;;;;27.28;49.25;101484.25;6398249;22;45520;-90
2022/05/14 17:35:21;;;;;;;;;8.33;6.33;;;;;27.22;49.03;101482.53;6396811;22;45375;-89
2022/05/14 17:40:35;;;;;;;;;4.00;4.00;;;;;27.05;49.60;101477.31;6297669;22;45508;-92
2022/05/14 17:43:00;;;;;;;;;4.00;3.00;;;;;26.98;49.82;101470.25;6293752;22;45531;-89
2022/05/14 17:45:26;;;;;;;;;3.00;3.00;;;;;26.92;49.86;101473.88;6271329;22;56120;-88
2022/05/14 17:47:53;;;;;;;;;4.00;3.00;;;;;26.85;49.84;101473.03;6299129;22;46011;-90
2022/05/14 17:50:26;;;;;;;;;8.67;5.00;;;;;26.80;49.94;101466.84;6298618;22;45386;-89
2022/05/14 17:52:51;;;;;;;;;2.00;2.00;;;;;26.75;50.19;101474.09;6299162;22;45375;-90
2022/05/14 17:55:17;;;;;;;;;5.67;5.00;;;;;26.66;50.35;101469.69;6300943;22;45559;-90
2022/05/14 17:57:47;;;;;;;;;4.33;2.33;;;;;26.60;50.35;101476.03;6300016;22;45448;-91
2022/05/14 18:00:18;;;;;;;;;1.00;1.00;;;;;26.55;50.67;101470.69;6298975;22;45257;-89
2022/05/14 18:02:44;;;;;;;;;7.33;5.00;;;;;26.50;51.15;101469.84;6272929;22;45515;-93
2022/05/14 18:05:12;;;;;;;;;2.33;2.33;;;;;26.48;51.06;101474.38;6297692;22;45338;-88
2022/05/14 18:07:39;;;;;;;;;3.67;2.67;;;;;26.42;50.87;101464.50;6297846;22;45580;-89
2022/05/14 18:10:06;;;;;;;;;7.67;4.00;;;;;26.34;51.33;101467.28;6299011;22;45365;-89
2022/05/14 18:12:32;;;;;;;;;7.00;5.67;;;;;26.29;51.17;101466.44;6299348;22;45329;-88
2022/05/14 18:14:58;;;;;;;;;8.67;8.00;;;;;26.26;51.84;101470.97;6299460;22;45689;-91
2022/05/14 18:17:24;;;;;;;;;2.33;2.33;;;;;26.19;51.69;101457.56;6332880;22;48149;-91
2022/05/14 18:19:49;;;;;;;;;7.33;6.00;;;;;26.16;52.13;101467.44;6397788;22;45337;-90
2022/05/14 18:22:14;;;;;;;;;14.33;10.33;;;;;26.11;52.15;101459.41;6397887;22;45661;-90
2022/05/14 18:24:40;;;;;;;;;27.50;23.50;;;;;26.04;52.25;101455.91;6367663;22;45513;-90
2022/05/14 18:27:17;;;;;;;;;11.33;10.00;;;;;26.01;52.56;101458.59;6368643;22;48160;-90